Woody, CA (93287)

12:30 PM PST on February 06, 2016 (GMT -0800)
Riverkern, CA | | Change Station
CLOSE
Current Station
Personal Weather Station
Location: Kernville, CA
Elevation: 2766 ft
Nearby Weather Stations

Elev 2766 ft 35.79 °N, 118.45 °W | Updated 1 second ago

Clear
Clear
63.5 °F
Feels Like 63.5 °F
N
0.4
Wind Variable Wind from East
Gusts 2.5 mph

Today
High -- | Low -- °F
--% Chance of Precip.
Yesterday
High -- | Low -- °F
Precip. -- in
Pressure 30.40 in
Visibility 4.0 miles
Clouds Clear
Dew Point 27 °F
Humidity 25%
Rainfall 0.00 in
Snow Depth Not available.
6:51 AM 5:27 PM
Waning Crescent, 4% visible
METAR KBFL 061954Z 00000KT 4SM HZ CLR 13/06 A3040 RMK AO2 SLP293 T01280061
Pressure 30.40 in
Visibility 4.0 miles
Clouds Clear
Dew Point 27 °F
Humidity 25%
Rainfall 0.00 in
Snow Depth Not available.
6:51 AM 5:27 PM
Waning Crescent, 4% visible
METAR KBFL 061954Z 00000KT 4SM HZ CLR 13/06 A3040 RMK AO2 SLP293 T01280061

10-Day Weather Forecast

Almanac

Astronomy

Feb. 06, 2016 Rise Set
Actual Time
Civil Twilight
Nautical Twilight
Astronomical Twilight
Moon
Length of Visible Light
Length of Day
Tomorrow will be .
, % of the Moon is Illuminated

Today's Extremes

State Highs State Lows

Community

WunderPhotos

Upload Photos

1,891,045 photos uploaded!

WunderBlog® & News

Nearby

Air Quality

  Air Quality AQ Index Pollutant
Not available.

Snow Depth

Station Depth Elevation

Earthquake Activity

City Distance Mag. Time & Date
Minimum magnitude displayed is 2.5.

Coastal Water Temperatures

Place Temperature

Stations

Nearby Weather Stations

Station Location Temp. Windchill Dew Point Humidity Wind Precip. Elev Updated Type
                   

Watches & Warnings

There are currently no watches in effect.